Time;durP1;ratioP1;P1;durP2;ratioP2;P2;SDS_P1;SDS_P2;PMS_P1;PMS_P2;Temp;Humidity;BMP_temperature;BMP_pressure;BME280_temperature;BME280_humidity;BME280_pressure;Samples;Min_cycle;Max_cycle;Signal;HPM_P1;HPM_P2
2021/11/04 00:01:31;;;;;;;2.58;1.30;;;;;;;;;;5048095;28;20056;-68
2021/11/04 00:03:56;;;;;;;1.83;1.10;;;;;;;;;;5045497;28;20051;-67
2021/11/04 00:06:21;;;;;;;1.40;1.05;;;;;;;;;;5046966;28;20025;-68
2021/11/04 00:08:47;;;;;;;3.03;1.20;;;;;;;;;;5045360;28;20032;-69
2021/11/04 00:11:12;;;;;;;2.55;1.10;;;;;;;;;;5040088;28;20573;-67
2021/11/04 00:13:37;;;;;;;2.10;1.10;;;;;;;;;;5045085;28;20039;-67
2021/11/04 00:16:02;;;;;;;2.20;1.20;;;;;;;;;;5046557;28;20396;-68
2021/11/04 00:18:27;;;;;;;1.75;1.13;;;;;;;;;;5051997;28;20025;-67
2021/11/04 00:20:53;;;;;;;2.08;1.20;;;;;;;;;;5048451;28;20039;-68
2021/11/04 00:23:18;;;;;;;3.30;1.40;;;;;;;;;;5039943;28;20504;-67
2021/11/04 00:25:43;;;;;;;2.33;1.27;;;;;;;;;;5043722;28;20040;-69
2021/11/04 00:28:09;;;;;;;3.38;1.40;;;;;;;;;;5048297;28;20551;-68
2021/11/04 00:30:34;;;;;;;2.00;1.38;;;;;;;;;;5048010;28;20108;-68
2021/11/04 00:32:59;;;;;;;3.95;1.90;;;;;;;;;;5046004;28;20091;-68
2021/11/04 00:35:24;;;;;;;2.53;1.58;;;;;;;;;;5047902;28;20350;-68
2021/11/04 00:37:50;;;;;;;1.90;1.55;;;;;;;;;;5047540;28;20023;-67
2021/11/04 00:40:17;;;;;;;2.33;1.60;;;;;;;;;;5039089;28;20041;-68
2021/11/04 00:42:42;;;;;;;2.78;1.90;;;;;;;;;;5046875;28;20519;-68
2021/11/04 00:45:08;;;;;;;2.60;1.73;;;;;;;;;;5043912;28;20131;-69
2021/11/04 00:47:33;;;;;;;3.20;1.95;;;;;;;;;;5047517;28;20041;-66
2021/11/04 00:49:59;;;;;;;3.22;2.00;;;;;;;;;;5048877;28;20071;-67
2021/11/04 00:52:24;;;;;;;6.00;1.98;;;;;;;;;;5039704;28;20029;-69
2021/11/04 00:54:49;;;;;;;4.15;2.00;;;;;;;;;;5038816;28;20307;-69
2021/11/04 00:57:14;;;;;;;3.13;1.90;;;;;;;;;;5044213;28;20028;-68
2021/11/04 00:59:40;;;;;;;5.95;2.03;;;;;;;;;;5043794;28;20067;-68
2021/11/04 01:02:05;;;;;;;3.35;2.08;;;;;;;;;;5042567;28;20021;-67
2021/11/04 01:04:30;;;;;;;3.08;2.03;;;;;;;;;;5040201;28;20014;-68
2021/11/04 01:06:55;;;;;;;3.70;2.28;;;;;;;;;;5042720;28;20023;-67
2021/11/04 01:09:20;;;;;;;3.55;1.88;;;;;;;;;;5043349;28;20079;-67
2021/11/04 01:11:45;;;;;;;3.03;2.10;;;;;;;;;;5037177;28;20013;-68
2021/11/04 01:14:11;;;;;;;3.13;1.98;;;;;;;;;;5044443;28;20025;-67
2021/11/04 01:16:38;;;;;;;3.95;2.00;;;;;;;;;;5042309;28;20039;-67
2021/11/04 01:19:03;;;;;;;2.00;1.60;;;;;;;;;;5044916;28;20426;-68
2021/11/04 01:21:29;;;;;;;3.10;1.60;;;;;;;;;;5037726;28;20022;-67
2021/11/04 01:23:54;;;;;;;2.50;1.75;;;;;;;;;;5043611;28;20498;-68
2021/11/04 01:26:19;;;;;;;2.47;1.75;;;;;;;;;;5048399;28;20433;-67
2021/11/04 01:28:45;;;;;;;2.67;1.63;;;;;;;;;;5048031;28;20035;-67
2021/11/04 01:31:10;;;;;;;2.90;2.00;;;;;;;;;;5043447;28;20039;-68
2021/11/04 01:33:35;;;;;;;3.63;1.67;;;;;;;;;;5046167;28;20048;-67
2021/11/04 01:36:01;;;;;;;2.47;1.70;;;;;;;;;;5046841;28;20024;-67
2021/11/04 01:38:26;;;;;;;4.10;1.55;;;;;;;;;;5048030;28;20029;-67
2021/11/04 01:40:51;;;;;;;3.15;1.42;;;;;;;;;;5044124;28;20028;-67
2021/11/04 01:43:17;;;;;;;2.17;1.33;;;;;;;;;;5044976;28;20033;-67
2021/11/04 01:45:42;;;;;;;2.70;1.13;;;;;;;;;;5039667;28;20061;-67
2021/11/04 01:48:07;;;;;;;2.40;1.17;;;;;;;;;;5040057;28;20098;-67
2021/11/04 01:50:33;;;;;;;2.03;1.20;;;;;;;;;;5042988;28;20074;-67
2021/11/04 01:52:58;;;;;;;1.85;1.20;;;;;;;;;;5041645;28;20053;-66
2021/11/04 01:55:25;;;;;;;1.30;0.90;;;;;;;;;;5043669;28;20533;-67
2021/11/04 01:57:51;;;;;;;2.60;1.10;;;;;;;;;;5046505;28;20053;-66
2021/11/04 02:00:17;;;;;;;1.13;0.80;;;;;;;;;;5040766;28;20033;-67
2021/11/04 02:02:44;;;;;;;7.05;1.10;;;;;;;;;;5043568;28;20056;-68
2021/11/04 02:05:10;;;;;;;1.27;0.80;;;;;;;;;;5043239;28;20037;-67
2021/11/04 02:07:56;;;;;;;0.85;0.80;;;;;;;;;;5048584;28;20082;-67
2021/11/04 02:10:21;;;;;;;1.17;0.85;;;;;;;;;;5040419;28;20025;-67
2021/11/04 02:12:50;;;;;;;1.50;1.00;;;;;;;;;;5045189;28;20028;-67
2021/11/04 02:15:15;;;;;;;2.15;0.77;;;;;;;;;;5045185;28;20032;-66
2021/11/04 02:17:43;;;;;;;1.38;0.80;;;;;;;;;;5047117;28;20013;-67
2021/11/04 02:20:08;;;;;;;1.30;0.90;;;;;;;;;;5050330;28;20025;-67
2021/11/04 02:22:37;;;;;;;1.63;0.90;;;;;;;;;;5047158;28;20032;-67
2021/11/04 02:25:10;;;;;;;1.58;0.90;;;;;;;;;;5037203;28;20102;-67
2021/11/04 02:27:37;;;;;;;1.33;0.90;;;;;;;;;;5046706;28;20481;-67
2021/11/04 02:30:03;;;;;;;1.67;0.90;;;;;;;;;;5045009;28;20516;-67
2021/11/04 02:32:28;;;;;;;1.45;0.80;;;;;;;;;;5045783;28;20125;-67
2021/11/04 02:34:54;;;;;;;1.27;0.80;;;;;;;;;;5046524;28;20110;-66
2021/11/04 02:37:19;;;;;;;2.28;0.90;;;;;;;;;;5043020;28;20061;-67
2021/11/04 02:39:45;;;;;;;1.27;0.65;;;;;;;;;;5051231;28;20046;-66
2021/11/04 02:42:10;;;;;;;1.63;0.90;;;;;;;;;;5050981;28;20021;-67
2021/11/04 02:44:36;;;;;;;0.60;0.52;;;;;;;;;;5044937;28;20409;-67
2021/11/04 02:47:01;;;;;;;1.15;0.73;;;;;;;;;;5045628;28;20472;-67
2021/11/04 02:49:26;;;;;;;1.75;0.60;;;;;;;;;;5048703;28;20336;-67
2021/11/04 02:51:52;;;;;;;1.42;0.80;;;;;;;;;;5048645;28;20040;-68
2021/11/04 02:54:17;;;;;;;0.88;0.60;;;;;;;;;;5046968;28;20029;-67
2021/11/04 02:56:44;;;;;;;0.82;0.60;;;;;;;;;;5047858;28;20029;-68
2021/11/04 02:59:10;;;;;;;1.60;0.60;;;;;;;;;;5044363;28;20091;-67
2021/11/04 03:01:35;;;;;;;0.70;0.40;;;;;;;;;;5047482;28;20048;-67
2021/11/04 03:04:01;;;;;;;0.88;0.60;;;;;;;;;;5047322;28;20063;-67
2021/11/04 03:06:26;;;;;;;0.90;0.50;;;;;;;;;;5050935;28;20017;-67
2021/11/04 03:08:51;;;;;;;0.70;0.60;;;;;;;;;;5040353;28;20734;-68
2021/11/04 03:11:16;;;;;;;0.88;0.60;;;;;;;;;;5038292;28;20096;-67
2021/11/04 03:13:41;;;;;;;0.88;0.70;;;;;;;;;;5046692;28;20088;-67
2021/11/04 03:16:07;;;;;;;1.50;0.60;;;;;;;;;;5046074;28;20389;-66
2021/11/04 03:18:33;;;;;;;1.35;0.90;;;;;;;;;;5048005;28;20016;-66
2021/11/04 03:20:58;;;;;;;1.48;0.80;;;;;;;;;;5050410;28;20348;-66
2021/11/04 03:23:23;;;;;;;0.90;0.60;;;;;;;;;;5049514;28;20029;-68
2021/11/04 03:25:49;;;;;;;1.52;0.77;;;;;;;;;;5048388;28;20036;-67
2021/11/04 03:28:15;;;;;;;1.00;0.70;;;;;;;;;;5039590;28;20040;-67
2021/11/04 03:30:40;;;;;;;1.10;0.80;;;;;;;;;;5049702;28;20017;-67
2021/11/04 03:33:08;;;;;;;0.85;0.65;;;;;;;;;;5049825;28;20024;-67
2021/11/04 03:35:36;;;;;;;1.73;0.98;;;;;;;;;;5047897;28;20024;-67
2021/11/04 03:38:01;;;;;;;1.17;0.75;;;;;;;;;;5050684;28;20136;-67
2021/11/04 03:40:28;;;;;;;1.80;0.88;;;;;;;;;;5040429;28;20111;-68
2021/11/04 03:42:53;;;;;;;1.00;0.70;;;;;;;;;;5050351;28;20025;-66
2021/11/04 03:45:19;;;;;;;1.80;0.60;;;;;;;;;;5044130;28;20366;-67
2021/11/04 03:47:44;;;;;;;0.90;0.60;;;;;;;;;;5043755;28;20036;-67
2021/11/04 03:50:10;;;;;;;1.23;0.90;;;;;;;;;;5048384;28;20048;-66
2021/11/04 03:52:38;;;;;;;0.73;0.60;;;;;;;;;;5049140;28;20028;-66
2021/11/04 03:55:03;;;;;;;1.05;0.70;;;;;;;;;;5044201;28;20330;-66
2021/11/04 03:57:29;;;;;;;1.05;0.80;;;;;;;;;;5043521;28;20484;-67
2021/11/04 03:59:54;;;;;;;1.48;0.70;;;;;;;;;;5048432;28;20027;-67
2021/11/04 04:02:20;;;;;;;1.88;0.80;;;;;;;;;;5043551;28;20024;-67
2021/11/04 04:04:55;;;;;;;0.82;0.70;;;;;;;;;;5048661;28;20029;-67
2021/11/04 04:07:24;;;;;;;1.02;0.90;;;;;;;;;;5043893;28;20510;-66
2021/11/04 04:09:50;;;;;;;1.02;0.85;;;;;;;;;;5042515;28;20022;-67
2021/11/04 04:12:15;;;;;;;1.13;0.70;;;;;;;;;;5048232;28;20035;-68
2021/11/04 04:14:40;;;;;;;1.60;1.00;;;;;;;;;;5046576;28;20025;-68
2021/11/04 04:17:05;;;;;;;1.98;0.93;;;;;;;;;;5039664;28;20025;-67
2021/11/04 04:19:30;;;;;;;1.42;0.90;;;;;;;;;;5049933;28;20017;-67
2021/11/04 04:21:56;;;;;;;1.38;1.00;;;;;;;;;;5041194;28;20562;-67
2021/11/04 04:24:21;;;;;;;1.85;1.00;;;;;;;;;;5049205;28;20036;-67
2021/11/04 04:26:46;;;;;;;2.10;1.20;;;;;;;;;;5038718;28;20082;-68
2021/11/04 04:29:11;;;;;;;1.98;1.25;;;;;;;;;;5038039;28;20103;-66
2021/11/04 04:31:37;;;;;;;1.38;0.88;;;;;;;;;;5047688;28;20021;-66
2021/11/04 04:34:02;;;;;;;1.52;1.10;;;;;;;;;;5048975;28;20714;-67
2021/11/04 04:36:27;;;;;;;2.08;1.20;;;;;;;;;;5035496;28;20021;-67
2021/11/04 04:38:54;;;;;;;1.50;1.20;;;;;;;;;;5047799;28;20017;-67
2021/11/04 04:41:19;;;;;;;1.67;1.10;;;;;;;;;;5041974;28;20025;-68
2021/11/04 04:43:44;;;;;;;1.92;1.40;;;;;;;;;;5044572;28;20029;-67
2021/11/04 04:46:09;;;;;;;3.00;1.38;;;;;;;;;;5041227;28;20318;-67
2021/11/04 04:48:35;;;;;;;1.92;1.10;;;;;;;;;;5042090;28;20042;-68
2021/11/04 04:51:00;;;;;;;1.77;1.20;;;;;;;;;;5045642;28;20028;-67
2021/11/04 04:53:25;;;;;;;2.17;1.45;;;;;;;;;;5045995;28;20112;-67
2021/11/04 04:55:50;;;;;;;1.67;1.00;;;;;;;;;;5042477;28;20472;-67
2021/11/04 04:58:15;;;;;;;1.95;1.15;;;;;;;;;;5045906;28;20046;-67
2021/11/04 05:00:40;;;;;;;2.13;1.30;;;;;;;;;;5041709;28;20029;-67
2021/11/04 05:03:06;;;;;;;1.85;1.00;;;;;;;;;;5042944;28;20115;-68
2021/11/04 05:05:31;;;;;;;1.25;1.00;;;;;;;;;;5049045;28;20108;-68
2021/11/04 05:07:57;;;;;;;1.30;1.00;;;;;;;;;;5046716;28;20040;-67
2021/11/04 05:10:22;;;;;;;1.25;0.90;;;;;;;;;;5045785;28;20439;-68
2021/11/04 05:12:47;;;;;;;1.48;1.15;;;;;;;;;;5046906;28;20036;-67
2021/11/04 05:15:13;;;;;;;1.60;0.93;;;;;;;;;;5044907;28;20017;-67
2021/11/04 05:17:38;;;;;;;1.00;0.70;;;;;;;;;;5049199;28;20031;-66
2021/11/04 05:20:04;;;;;;;1.98;0.80;;;;;;;;;;5048972;28;20017;-67
2021/11/04 05:22:29;;;;;;;1.60;0.90;;;;;;;;;;5048805;28;20108;-67
2021/11/04 05:24:55;;;;;;;0.77;0.60;;;;;;;;;;5048889;28;20095;-67
2021/11/04 05:27:20;;;;;;;0.80;0.70;;;;;;;;;;5048918;28;20037;-66
2021/11/04 05:29:45;;;;;;;1.27;0.80;;;;;;;;;;5047542;28;20013;-68
2021/11/04 05:32:10;;;;;;;0.60;0.52;;;;;;;;;;5048520;28;20028;-67
2021/11/04 05:34:36;;;;;;;1.38;0.70;;;;;;;;;;5048743;28;20448;-67
2021/11/04 05:37:03;;;;;;;0.90;0.70;;;;;;;;;;5048939;28;20218;-68
2021/11/04 05:39:28;;;;;;;1.50;0.70;;;;;;;;;;5048567;28;20028;-66
2021/11/04 05:41:53;;;;;;;0.70;0.70;;;;;;;;;;5048775;28;20025;-67
2021/11/04 05:44:18;;;;;;;0.98;0.63;;;;;;;;;;5048600;28;20021;-68
2021/11/04 05:46:43;;;;;;;1.92;0.70;;;;;;;;;;5041239;28;20097;-67
2021/11/04 05:49:09;;;;;;;1.05;0.55;;;;;;;;;;5052481;28;20032;-67
2021/11/04 05:51:34;;;;;;;1.75;0.93;;;;;;;;;;5047727;28;20364;-68
2021/11/04 05:53:59;;;;;;;0.93;0.63;;;;;;;;;;5044064;28;20033;-67
2021/11/04 05:56:24;;;;;;;2.25;0.80;;;;;;;;;;5047578;28;20477;-68
2021/11/04 05:58:49;;;;;;;1.55;0.90;;;;;;;;;;5048502;28;20052;-67
2021/11/04 06:01:14;;;;;;;1.30;0.80;;;;;;;;;;5044572;28;20013;-67
2021/11/04 06:03:40;;;;;;;3.03;0.98;;;;;;;;;;5048857;28;20029;-68
2021/11/04 06:06:05;;;;;;;1.88;0.90;;;;;;;;;;5050653;28;20028;-68
2021/11/04 06:08:30;;;;;;;2.50;1.08;;;;;;;;;;5051048;28;20045;-68
2021/11/04 06:10:55;;;;;;;1.65;1.20;;;;;;;;;;5050499;28;20096;-68
2021/11/04 06:13:21;;;;;;;2.88;1.20;;;;;;;;;;5051110;28;20046;-68
2021/11/04 06:15:46;;;;;;;4.18;1.38;;;;;;;;;;5052061;28;20017;-68
2021/11/04 06:18:11;;;;;;;5.55;1.75;;;;;;;;;;5054005;28;20916;-70
2021/11/04 06:20:36;;;;;;;2.42;1.50;;;;;;;;;;5048369;28;20021;-68
2021/11/04 06:23:02;;;;;;;3.10;1.50;;;;;;;;;;5052593;28;20032;-67
2021/11/04 06:25:27;;;;;;;5.63;1.70;;;;;;;;;;5052085;28;20246;-67
2021/11/04 06:27:52;;;;;;;1.85;1.15;;;;;;;;;;5052182;28;20029;-68
2021/11/04 06:30:17;;;;;;;4.43;1.45;;;;;;;;;;5051069;28;20483;-67
2021/11/04 06:32:42;;;;;;;1.90;1.20;;;;;;;;;;5052252;28;20031;-67
2021/11/04 06:35:09;;;;;;;3.55;1.50;;;;;;;;;;5049668;28;20025;-67
2021/11/04 06:37:35;;;;;;;3.75;1.30;;;;;;;;;;5052303;28;20029;-69
2021/11/04 06:40:01;;;;;;;2.30;1.30;;;;;;;;;;5051068;28;20484;-68
2021/11/04 06:42:26;;;;;;;3.38;1.25;;;;;;;;;;5051983;28;20099;-68
2021/11/04 06:44:51;;;;;;;3.17;1.17;;;;;;;;;;5050826;28;20057;-68
2021/11/04 06:47:23;;;;;;;1.38;1.10;;;;;;;;;;5052134;28;20139;-69
2021/11/04 06:49:49;;;;;;;2.28;1.20;;;;;;;;;;5053839;28;20035;-66
2021/11/04 06:52:17;;;;;;;1.80;1.00;;;;;;;;;;5047369;28;20128;-68
2021/11/04 06:54:47;;;;;;;1.88;1.13;;;;;;;;;;5045999;28;20120;-68
2021/11/04 06:57:17;;;;;;;2.85;1.10;;;;;;;;;;5051700;28;20035;-69
2021/11/04 06:59:45;;;;;;;1.80;1.25;;;;;;;;;;5049061;28;20408;-69
2021/11/04 07:02:12;;;;;;;3.20;1.02;;;;;;;;;;5046421;28;20108;-66
2021/11/04 07:04:39;;;;;;;1.52;1.20;;;;;;;;;;5049598;28;20051;-68
2021/11/04 07:07:07;;;;;;;2.53;1.40;;;;;;;;;;5050455;28;20039;-68
2021/11/04 07:09:34;;;;;;;1.88;1.00;;;;;;;;;;5043818;28;20028;-68
2021/11/04 07:11:59;;;;;;;1.60;1.27;;;;;;;;;;5047942;28;20060;-68
2021/11/04 07:14:32;;;;;;;2.45;1.10;;;;;;;;;;5045920;28;20421;-68
2021/11/04 07:16:57;;;;;;;2.05;1.20;;;;;;;;;;5049992;28;20503;-68
2021/11/04 07:19:23;;;;;;;1.92;1.50;;;;;;;;;;5055034;28;20131;-68
2021/11/04 07:22:07;;;;;;;1.92;1.20;;;;;;;;;;5050278;28;20025;-68
2021/11/04 07:24:34;;;;;;;1.65;1.30;;;;;;;;;;5049515;28;20021;-69
2021/11/04 07:27:10;;;;;;;2.17;1.42;;;;;;;;;;5049610;28;20037;-69
2021/11/04 07:29:39;;;;;;;1.50;1.13;;;;;;;;;;5044313;28;20025;-68
2021/11/04 07:32:05;;;;;;;2.22;1.60;;;;;;;;;;5045900;28;20558;-65
2021/11/04 07:34:30;;;;;;;1.80;1.50;;;;;;;;;;5049337;28;20025;-65
2021/11/04 07:36:56;;;;;;;2.17;1.33;;;;;;;;;;5050316;28;20132;-65
2021/11/04 07:39:21;;;;;;;1.67;1.20;;;;;;;;;;5046041;28;20029;-64
2021/11/04 07:41:46;;;;;;;2.10;1.08;;;;;;;;;;5043996;28;20036;-65
2021/11/04 07:44:11;;;;;;;1.75;1.20;;;;;;;;;;5049353;28;20043;-64
2021/11/04 07:46:37;;;;;;;1.40;1.02;;;;;;;;;;5046037;28;20532;-65
2021/11/04 07:49:02;;;;;;;0.95;0.75;;;;;;;;;;5053233;28;20508;-65
2021/11/04 07:51:27;;;;;;;0.98;0.80;;;;;;;;;;5049573;28;20013;-65
2021/11/04 07:53:52;;;;;;;1.13;0.82;;;;;;;;;;5050098;28;20040;-65
2021/11/04 07:56:18;;;;;;;1.02;0.77;;;;;;;;;;5046439;28;20017;-60
2021/11/04 07:58:43;;;;;;;1.95;0.68;;;;;;;;;;5010635;28;1047125;-60
2021/11/04 08:01:08;;;;;;;1.00;0.70;;;;;;;;;;5050970;28;20033;-62
2021/11/04 08:03:33;;;;;;;0.60;0.60;;;;;;;;;;5047718;28;20096;-61
2021/11/04 08:05:59;;;;;;;0.70;0.70;;;;;;;;;;5050164;28;20060;-61
2021/11/04 08:08:24;;;;;;;1.83;0.70;;;;;;;;;;5050366;28;20455;-62
2021/11/04 08:10:53;;;;;;;0.60;0.50;;;;;;;;;;5045369;28;20025;-60
2021/11/04 08:13:18;;;;;;;0.80;0.60;;;;;;;;;;5046350;28;20021;-61
2021/11/04 08:15:43;;;;;;;0.68;0.68;;;;;;;;;;5050124;28;20020;-62
2021/11/04 08:18:09;;;;;;;1.02;0.68;;;;;;;;;;5044508;28;20072;-61
2021/11/04 08:20:35;;;;;;;0.80;0.60;;;;;;;;;;5046531;28;20353;-61
2021/11/04 08:23:02;;;;;;;0.70;0.60;;;;;;;;;;5050229;28;20029;-62
2021/11/04 08:25:27;;;;;;;0.40;0.40;;;;;;;;;;5050867;28;20017;-60
2021/11/04 08:27:53;;;;;;;0.50;0.50;;;;;;;;;;5049267;28;20045;-61
2021/11/04 08:30:18;;;;;;;1.30;0.40;;;;;;;;;;5050507;28;20020;-63
2021/11/04 08:32:44;;;;;;;2.22;0.70;;;;;;;;;;5050262;28;20060;-61
2021/11/04 08:35:09;;;;;;;0.55;0.50;;;;;;;;;;5050330;28;20017;-61
2021/11/04 08:37:34;;;;;;;0.50;0.50;;;;;;;;;;5050335;28;20021;-62
2021/11/04 08:39:59;;;;;;;0.70;0.60;;;;;;;;;;5049784;28;20039;-61
2021/11/04 08:42:25;;;;;;;1.58;0.50;;;;;;;;;;5050034;28;20111;-61
2021/11/04 08:44:50;;;;;;;0.50;0.45;;;;;;;;;;5050023;28;20017;-61
2021/11/04 08:47:15;;;;;;;0.60;0.50;;;;;;;;;;5049915;28;20025;-60
2021/11/04 08:49:41;;;;;;;0.65;0.50;;;;;;;;;;5055720;28;20025;-61
2021/11/04 08:52:08;;;;;;;0.82;0.50;;;;;;;;;;5050114;28;20067;-60
2021/11/04 08:54:33;;;;;;;0.50;0.40;;;;;;;;;;5049604;28;20039;-61
2021/11/04 08:56:59;;;;;;;0.40;0.40;;;;;;;;;;5048143;28;20111;-60
2021/11/04 08:59:24;;;;;;;2.03;0.75;;;;;;;;;;5049101;28;20056;-63
2021/11/04 09:01:50;;;;;;;0.50;0.50;;;;;;;;;;5049966;28;20029;-62
2021/11/04 09:04:15;;;;;;;0.60;0.50;;;;;;;;;;5049727;28;20017;-61
2021/11/04 09:06:40;;;;;;;0.50;0.50;;;;;;;;;;5049770;28;20484;-61
2021/11/04 09:09:06;;;;;;;0.43;0.40;;;;;;;;;;5049308;28;20417;-62
2021/11/04 09:11:32;;;;;;;0.98;0.50;;;;;;;;;;5049531;28;20021;-61
2021/11/04 09:13:58;;;;;;;0.60;0.60;;;;;;;;;;5049243;28;20024;-61
2021/11/04 09:16:23;;;;;;;0.73;0.40;;;;;;;;;;5049399;28;20103;-61
2021/11/04 09:18:48;;;;;;;0.50;0.40;;;;;;;;;;5053289;28;20132;-61
2021/11/04 09:21:13;;;;;;;0.70;0.60;;;;;;;;;;5049315;28;20036;-61
2021/11/04 09:23:39;;;;;;;0.77;0.50;;;;;;;;;;5049616;28;20049;-60
2021/11/04 09:26:04;;;;;;;0.45;0.45;;;;;;;;;;5049333;28;20033;-62
2021/11/04 09:28:29;;;;;;;0.68;0.50;;;;;;;;;;5049100;28;20464;-61
2021/11/04 09:30:54;;;;;;;0.85;0.52;;;;;;;;;;5049010;28;20067;-60
2021/11/04 09:33:20;;;;;;;0.60;0.57;;;;;;;;;;5049082;28;20388;-61
2021/11/04 09:35:45;;;;;;;0.52;0.50;;;;;;;;;;5049208;28;20032;-61
2021/11/04 09:38:10;;;;;;;1.05;0.57;;;;;;;;;;5049208;28;20032;-62
2021/11/04 09:40:35;;;;;;;1.05;0.70;;;;;;;;;;5048551;28;20021;-61
2021/11/04 09:43:01;;;;;;;0.60;0.55;;;;;;;;;;5049388;28;20025;-61
2021/11/04 09:45:27;;;;;;;1.00;0.70;;;;;;;;;;5048620;28;20457;-61
2021/11/04 09:47:53;;;;;;;0.60;0.60;;;;;;;;;;5049320;28;20058;-61
2021/11/04 09:50:18;;;;;;;1.20;0.80;;;;;;;;;;5050612;28;20464;-61
2021/11/04 09:52:45;;;;;;;1.23;0.80;;;;;;;;;;5048821;28;20105;-61
2021/11/04 09:55:18;;;;;;;0.98;0.80;;;;;;;;;;5048984;28;20120;-62
2021/11/04 09:57:43;;;;;;;1.10;0.80;;;;;;;;;;5048495;28;20092;-60
2021/11/04 10:00:09;;;;;;;1.02;0.70;;;;;;;;;;5048991;28;20103;-63
2021/11/04 10:02:34;;;;;;;1.27;0.90;;;;;;;;;;5048824;28;20100;-62
2021/11/04 10:05:04;;;;;;;0.80;0.75;;;;;;;;;;5048918;28;20562;-61
2021/11/04 10:07:39;;;;;;;1.05;0.85;;;;;;;;;;5048872;28;20040;-61
2021/11/04 10:10:04;;;;;;;1.15;0.70;;;;;;;;;;5048880;28;20398;-62
2021/11/04 10:12:29;;;;;;;1.13;0.95;;;;;;;;;;5048570;28;20024;-61
2021/11/04 10:14:55;;;;;;;0.75;0.60;;;;;;;;;;5048710;28;20050;-62
2021/11/04 10:17:27;;;;;;;1.10;0.80;;;;;;;;;;5048575;28;20469;-62
2021/11/04 10:19:53;;;;;;;0.98;0.88;;;;;;;;;;5055109;28;20028;-62
2021/11/04 10:22:26;;;;;;;0.60;0.60;;;;;;;;;;5048633;28;20059;-61
2021/11/04 10:24:51;;;;;;;1.35;1.00;;;;;;;;;;5048925;28;20049;-63
2021/11/04 10:27:42;;;;;;;1.88;1.10;;;;;;;;;;5048392;28;20041;-61
2021/11/04 10:30:28;;;;;;;2.20;1.38;;;;;;;;;;5048209;28;20536;-62
2021/11/04 10:32:53;;;;;;;1.23;1.13;;;;;;;;;;5043380;28;20029;-62
2021/11/04 10:35:18;;;;;;;1.55;1.00;;;;;;;;;;5048758;28;20111;-61
2021/11/04 10:37:44;;;;;;;1.70;1.10;;;;;;;;;;5048540;28;20025;-61
2021/11/04 10:40:15;;;;;;;1.65;1.20;;;;;;;;;;5048682;28;20024;-60
2021/11/04 10:42:53;;;;;;;2.20;1.20;;;;;;;;;;5048458;28;20480;-61
2021/11/04 10:45:22;;;;;;;1.95;1.20;;;;;;;;;;5043392;28;20481;-62
2021/11/04 10:47:48;;;;;;;1.08;0.80;;;;;;;;;;5048444;28;20036;-62
2021/11/04 10:50:33;;;;;;;1.65;1.23;;;;;;;;;;5048483;28;20094;-62
2021/11/04 10:53:06;;;;;;;1.15;0.93;;;;;;;;;;5051758;28;20357;-61
2021/11/04 10:55:31;;;;;;;1.10;0.90;;;;;;;;;;5050221;28;20028;-63
2021/11/04 10:57:56;;;;;;;1.50;1.10;;;;;;;;;;5051216;28;20045;-62
2021/11/04 11:00:22;;;;;;;1.25;0.90;;;;;;;;;;5051868;28;20032;-61
2021/11/04 11:02:56;;;;;;;1.63;1.10;;;;;;;;;;5051618;28;20746;-61
2021/11/04 11:05:25;;;;;;;1.20;0.88;;;;;;;;;;5051618;28;20591;-63
2021/11/04 11:07:50;;;;;;;1.00;0.90;;;;;;;;;;5051427;28;20051;-62
2021/11/04 11:10:16;;;;;;;1.48;1.00;;;;;;;;;;5051837;28;20385;-63
2021/11/04 11:12:41;;;;;;;2.13;1.00;;;;;;;;;;5051265;28;20071;-62
2021/11/04 11:15:06;;;;;;;2.80;1.00;;;;;;;;;;5051619;28;20658;-62
2021/11/04 11:17:31;;;;;;;2.30;0.98;;;;;;;;;;5051432;28;20021;-62
2021/11/04 11:19:58;;;;;;;1.15;0.90;;;;;;;;;;5054621;28;20468;-62
2021/11/04 11:22:24;;;;;;;2.25;0.85;;;;;;;;;;5051446;28;20024;-62
2021/11/04 11:24:49;;;;;;;0.65;0.65;;;;;;;;;;5051340;28;20032;-62
2021/11/04 11:27:18;;;;;;;2.38;0.93;;;;;;;;;;5051349;28;20086;-61
2021/11/04 11:29:45;;;;;;;1.25;0.75;;;;;;;;;;5051823;28;20021;-61
2021/11/04 11:32:26;;;;;;;1.48;0.82;;;;;;;;;;5052122;28;20093;-61
2021/11/04 11:35:20;;;;;;;1.40;0.80;;;;;;;;;;5045655;28;20079;-61
2021/11/04 11:37:55;;;;;;;1.10;0.90;;;;;;;;;;5051266;28;20024;-61
2021/11/04 11:40:20;;;;;;;1.00;0.70;;;;;;;;;;5051496;28;20070;-61
2021/11/04 11:42:59;;;;;;;0.80;0.80;;;;;;;;;;5049443;28;20440;-62
2021/11/04 11:45:24;;;;;;;1.08;0.80;;;;;;;;;;5051103;28;20033;-61
2021/11/04 11:47:49;;;;;;;1.58;0.90;;;;;;;;;;5051280;28;20428;-61
2021/11/04 11:50:24;;;;;;;2.05;0.80;;;;;;;;;;5051899;28;20101;-61
2021/11/04 11:52:53;;;;;;;1.10;0.80;;;;;;;;;;5051263;28;20033;-61
2021/11/04 11:55:20;;;;;;;1.42;1.00;;;;;;;;;;5051077;28;20021;-61
2021/11/04 11:58:04;;;;;;;1.00;0.70;;;;;;;;;;5050896;28;20045;-62
2021/11/04 12:00:48;;;;;;;1.10;0.95;;;;;;;;;;5045036;28;20029;-62
2021/11/04 12:03:40;;;;;;;1.42;0.93;;;;;;;;;;5049347;28;20108;-61
2021/11/04 12:06:11;;;;;;;1.38;0.80;;;;;;;;;;5050518;28;20029;-62
2021/11/04 12:08:37;;;;;;;1.58;1.20;;;;;;;;;;5049764;28;20041;-61
2021/11/04 12:11:04;;;;;;;2.08;1.20;;;;;;;;;;5050764;28;20039;-62
2021/11/04 12:13:30;;;;;;;4.25;1.35;;;;;;;;;;5050577;28;20123;-61
2021/11/04 12:16:05;;;;;;;1.35;1.15;;;;;;;;;;5050361;28;20443;-61
2021/11/04 12:18:30;;;;;;;1.98;1.10;;;;;;;;;;5055723;28;20028;-62
2021/11/04 12:20:56;;;;;;;1.83;1.30;;;;;;;;;;5051181;28;20079;-61
2021/11/04 12:23:30;;;;;;;1.35;1.20;;;;;;;;;;5050610;28;20031;-61
2021/11/04 12:25:55;;;;;;;2.03;1.40;;;;;;;;;;5050130;28;20058;-61
2021/11/04 12:28:20;;;;;;;2.92;1.20;;;;;;;;;;5050145;28;20479;-63
2021/11/04 12:30:45;;;;;;;2.58;1.63;;;;;;;;;;5049798;28;20025;-61
2021/11/04 12:33:11;;;;;;;2.90;1.50;;;;;;;;;;5050408;28;20025;-61
2021/11/04 12:35:47;;;;;;;2.20;1.42;;;;;;;;;;5050004;28;20540;-63
2021/11/04 12:38:13;;;;;;;2.13;1.30;;;;;;;;;;5050001;28;20037;-63
2021/11/04 12:40:38;;;;;;;2.25;1.73;;;;;;;;;;5050131;28;20033;-62
2021/11/04 12:43:10;;;;;;;2.05;1.55;;;;;;;;;;5049583;28;20033;-62
2021/11/04 12:45:36;;;;;;;2.22;1.63;;;;;;;;;;5049586;28;20401;-61
2021/11/04 12:48:02;;;;;;;2.05;1.50;;;;;;;;;;5050731;28;20032;-62
2021/11/04 12:50:28;;;;;;;3.20;2.15;;;;;;;;;;5052104;28;20112;-62
2021/11/04 12:53:09;;;;;;;2.47;1.95;;;;;;;;;;5049578;28;20037;-61
2021/11/04 12:55:34;;;;;;;2.88;1.95;;;;;;;;;;5049311;28;20017;-63
2021/11/04 12:58:09;;;;;;;2.30;1.70;;;;;;;;;;5049633;28;20079;-63
2021/11/04 13:00:35;;;;;;;2.13;1.67;;;;;;;;;;5049740;28;20362;-61
2021/11/04 13:03:01;;;;;;;2.40;1.80;;;;;;;;;;5049916;28;20031;-62
2021/11/04 13:05:26;;;;;;;2.28;1.70;;;;;;;;;;5049294;28;20013;-62
2021/11/04 13:07:56;;;;;;;3.72;1.90;;;;;;;;;;5049556;28;20041;-62
2021/11/04 13:10:25;;;;;;;2.63;1.80;;;;;;;;;;5049432;28;20503;-63
2021/11/04 13:12:53;;;;;;;2.95;2.00;;;;;;;;;;5048669;28;20043;-62
2021/11/04 13:15:20;;;;;;;2.47;1.80;;;;;;;;;;5048779;28;20009;-62
2021/11/04 13:17:49;;;;;;;3.13;2.20;;;;;;;;;;5049034;28;20025;-64
2021/11/04 13:20:24;;;;;;;3.55;2.40;;;;;;;;;;5050300;28;20059;-64
2021/11/04 13:22:52;;;;;;;2.88;1.95;;;;;;;;;;5049411;28;20036;-61
2021/11/04 13:25:19;;;;;;;2.80;1.92;;;;;;;;;;5049494;28;20043;-63
2021/11/04 13:27:45;;;;;;;3.63;2.17;;;;;;;;;;5048804;28;20044;-61
2021/11/04 13:30:11;;;;;;;3.95;2.13;;;;;;;;;;5048774;28;20198;-61
2021/11/04 13:32:36;;;;;;;3.08;1.90;;;;;;;;;;5049184;28;20092;-61
2021/11/04 13:35:03;;;;;;;4.05;2.20;;;;;;;;;;5049046;28;20032;-62
2021/11/04 13:37:29;;;;;;;3.25;2.03;;;;;;;;;;5049191;28;20025;-61
2021/11/04 13:39:59;;;;;;;2.90;2.13;;;;;;;;;;5048709;28;20021;-61
2021/11/04 13:42:26;;;;;;;3.28;2.17;;;;;;;;;;5048761;28;20013;-62
2021/11/04 13:45:08;;;;;;;2.83;2.10;;;;;;;;;;5049081;28;20091;-61
2021/11/04 13:47:35;;;;;;;3.10;2.20;;;;;;;;;;5048928;28;20029;-62
2021/11/04 13:50:00;;;;;;;2.20;1.95;;;;;;;;;;5049688;28;20025;-61
2021/11/04 13:52:25;;;;;;;5.28;2.40;;;;;;;;;;5048371;28;20492;-64
2021/11/04 13:54:50;;;;;;;3.25;2.03;;;;;;;;;;5049061;28;20018;-62
2021/11/04 13:57:15;;;;;;;3.20;2.30;;;;;;;;;;5048741;28;20025;-61
2021/11/04 13:59:44;;;;;;;3.90;2.22;;;;;;;;;;5048632;28;20507;-62
2021/11/04 14:02:13;;;;;;;3.45;1.95;;;;;;;;;;5048769;28;20040;-63
2021/11/04 14:04:48;;;;;;;2.47;2.00;;;;;;;;;;5048765;28;20032;-62
2021/11/04 14:07:27;;;;;;;4.45;2.15;;;;;;;;;;5048833;28;20029;-61
2021/11/04 14:10:11;;;;;;;2.85;2.00;;;;;;;;;;5048834;28;20029;-61
2021/11/04 14:12:38;;;;;;;2.70;1.83;;;;;;;;;;5048421;28;20028;-61
2021/11/04 14:15:09;;;;;;;3.60;2.33;;;;;;;;;;5048552;28;20021;-60
2021/11/04 14:17:48;;;;;;;3.58;2.13;;;;;;;;;;5048222;28;20047;-64
2021/11/04 14:20:14;;;;;;;3.10;2.20;;;;;;;;;;5048521;28;20514;-62
2021/11/04 14:22:39;;;;;;;3.53;2.50;;;;;;;;;;5048311;28;20052;-62
2021/11/04 14:25:06;;;;;;;3.15;2.53;;;;;;;;;;5048405;28;20033;-61
2021/11/04 14:27:31;;;;;;;3.38;2.00;;;;;;;;;;5052218;28;20044;-63
2021/11/04 14:29:57;;;;;;;3.40;2.47;;;;;;;;;;5052357;28;20025;-62
2021/11/04 14:32:22;;;;;;;3.60;2.22;;;;;;;;;;5052878;28;20106;-62
2021/11/04 14:34:47;;;;;;;2.58;2.08;;;;;;;;;;5052313;28;20350;-62
2021/11/04 14:37:12;;;;;;;2.88;2.30;;;;;;;;;;5052561;28;20024;-61
2021/11/04 14:39:38;;;;;;;4.15;2.38;;;;;;;;;;5052049;28;20028;-62
2021/11/04 14:42:03;;;;;;;3.40;2.13;;;;;;;;;;5052210;28;20036;-62